createdAt,value
2023-01-08T00:02:05.664Z,76.55
2023-01-08T00:05:08.625Z,76.25
2023-01-08T00:08:11.600Z,76.55
2023-01-08T00:11:14.833Z,78.01
2023-01-08T00:14:16.969Z,78.49
2023-01-08T00:17:19.306Z,78.80
2023-01-08T00:20:22.239Z,79.13
2023-01-08T00:23:24.863Z,79.80
2023-01-08T00:26:27.804Z,79.64
2023-01-08T00:29:31.098Z,79.92
2023-01-08T00:32:36.062Z,79.28
2023-01-08T00:35:41.398Z,79.06
2023-01-08T00:38:46.933Z,78.13
2023-01-08T00:41:50.181Z,77.86
2023-01-08T00:44:54.139Z,77.79
2023-01-08T00:47:58.954Z,76.63
2023-01-08T00:51:03.876Z,77.31
2023-01-08T00:54:06.657Z,77.00
2023-01-08T00:57:08.650Z,78.45
2023-01-08T01:00:14.697Z,79.19
2023-01-08T01:03:18.305Z,79.54
2023-01-08T01:06:23.163Z,79.50
2023-01-08T01:09:25.381Z,80.16
2023-01-08T01:12:28.270Z,80.35
2023-01-08T01:15:30.761Z,80.11
2023-01-08T01:18:32.856Z,80.44
2023-01-08T01:21:48.084Z,81.01
2023-01-08T01:24:51.026Z,80.12
2023-01-08T01:27:56.869Z,80.54
2023-01-08T01:30:59.518Z,79.27
2023-01-08T01:34:02.153Z,76.54
2023-01-08T01:37:05.339Z,75.53
2023-01-08T01:40:09.788Z,74.31
2023-01-08T01:43:15.131Z,74.60
2023-01-08T01:46:39.993Z,73.45
2023-01-08T01:49:54.005Z,72.71
2023-01-08T01:53:08.892Z,71.92
2023-01-08T01:56:12.048Z,71.31
2023-01-08T01:59:15.135Z,71.25
2023-01-08T02:02:17.404Z,70.68
2023-01-08T02:05:21.263Z,70.01
2023-01-08T02:08:35.463Z,69.37
2023-01-08T02:12:24.173Z,69.84
2023-01-08T02:15:49.397Z,71.00
2023-01-08T02:18:59.371Z,69.55
2023-01-08T02:22:45.886Z,70.16
2023-01-08T02:26:15.166Z,69.83
2023-01-08T02:29:23.788Z,69.98
2023-01-08T02:32:28.066Z,70.09
2023-01-08T02:35:49.110Z,69.50
2023-01-08T02:39:12.253Z,67.85
2023-01-08T02:42:36.138Z,67.72
2023-01-08T02:45:55.815Z,67.54
2023-01-08T02:49:10.515Z,66.80
2023-01-08T02:52:16.112Z,67.10
2023-01-08T02:55:21.184Z,66.83
2023-01-08T02:58:25.610Z,66.78
2023-01-08T03:01:30.239Z,67.06
2023-01-08T03:04:40.444Z,67.37
2023-01-08T03:07:43.776Z,66.89
2023-01-08T03:10:52.249Z,67.26
2023-01-08T03:14:02.868Z,67.75
2023-01-08T03:17:20.395Z,68.08
2023-01-08T03:20:26.387Z,67.36
2023-01-08T03:23:31.850Z,67.38
2023-01-08T03:26:37.485Z,67.66
2023-01-08T03:29:40.649Z,66.86
2023-01-08T03:32:45.386Z,65.87
2023-01-08T03:35:50.802Z,65.97
2023-01-08T03:39:12.649Z,65.38
2023-01-08T03:42:18.211Z,65.56
2023-01-08T03:45:22.307Z,65.84
2023-01-08T03:48:27.572Z,65.17
2023-01-08T03:51:30.224Z,65.50
2023-01-08T03:54:34.949Z,65.57
2023-01-08T03:57:37.099Z,65.95
2023-01-08T04:00:39.439Z,65.67
2023-01-08T04:03:41.492Z,66.36
2023-01-08T04:06:43.710Z,66.59
2023-01-08T04:09:46.046Z,66.71
2023-01-08T04:12:48.127Z,66.49
2023-01-08T04:15:51.847Z,61.43
2023-01-08T04:18:54.249Z,58.54
2023-01-08T04:21:56.259Z,57.90
2023-01-08T04:24:58.426Z,58.97
2023-01-08T04:28:00.504Z,56.84
2023-01-08T04:31:10.013Z,54.75
2023-01-08T04:34:12.280Z,56.29
2023-01-08T04:37:14.328Z,55.54
2023-01-08T04:40:16.543Z,52.38
2023-01-08T04:43:18.525Z,52.92
2023-01-08T04:46:20.675Z,51.71
2023-01-08T04:49:22.893Z,51.80
2023-01-08T04:52:25.531Z,50.37
2023-01-08T04:55:27.770Z,54.35
2023-01-08T04:58:29.988Z,55.50
2023-01-08T05:01:32.494Z,56.18
2023-01-08T05:04:35.032Z,58.19
2023-01-08T05:07:38.198Z,58.37
2023-01-08T05:10:40.656Z,58.44
2023-01-08T05:13:42.830Z,57.95
2023-01-08T05:16:44.920Z,58.04
2023-01-08T05:19:47.118Z,58.64
2023-01-08T05:22:49.149Z,57.29
2023-01-08T05:25:51.226Z,58.54
2023-01-08T05:28:53.371Z,59.08
2023-01-08T05:31:56.944Z,60.69
2023-01-08T05:34:59.393Z,60.73
2023-01-08T05:38:03.189Z,58.69
2023-01-08T05:41:06.280Z,59.28
2023-01-08T05:44:10.294Z,59.79
2023-01-08T05:47:13.690Z,57.69
2023-01-08T05:50:15.913Z,59.23
2023-01-08T05:53:17.945Z,61.03
2023-01-08T05:56:22.563Z,61.38
2023-01-08T05:59:24.851Z,61.37
2023-01-08T06:02:27.639Z,59.89
2023-01-08T06:05:31.319Z,64.52
2023-01-08T06:08:34.069Z,67.46
2023-01-08T06:11:36.103Z,68.07
2023-01-08T06:14:39.196Z,67.33
2023-01-08T06:17:42.170Z,68.50
2023-01-08T06:20:44.315Z,70.52
2023-01-08T06:23:46.285Z,67.95
2023-01-08T06:26:48.222Z,68.97
2023-01-08T06:29:50.276Z,70.32
2023-01-08T06:32:57.116Z,72.44
2023-01-08T06:36:05.144Z,73.90
2023-01-08T06:39:08.353Z,75.89
2023-01-08T06:42:10.580Z,76.10
2023-01-08T06:45:13.035Z,79.11
2023-01-08T06:48:15.113Z,77.34
2023-01-08T06:51:17.248Z,77.18
2023-01-08T06:54:19.725Z,74.14
2023-01-08T06:57:22.159Z,72.27
2023-01-08T07:00:26.330Z,64.47
2023-01-08T07:03:29.911Z,64.57
2023-01-08T07:06:33.558Z,63.66
2023-01-08T07:09:35.960Z,64.07
2023-01-08T07:12:37.995Z,64.11
2023-01-08T07:15:41.501Z,65.39
2023-01-08T07:18:44.986Z,67.46
2023-01-08T07:21:47.335Z,67.51
2023-01-08T07:24:49.588Z,68.16
2023-01-08T07:27:52.051Z,67.96
2023-01-08T07:30:54.299Z,68.09
2023-01-08T07:33:56.557Z,67.45
2023-01-08T07:36:58.591Z,66.88
2023-01-08T07:40:00.710Z,66.22
2023-01-08T07:43:04.919Z,64.49
2023-01-08T07:46:08.169Z,61.13
2023-01-08T07:49:10.681Z,61.78
2023-01-08T07:52:12.728Z,60.53
2023-01-08T07:55:14.961Z,60.54
2023-01-08T07:58:17.382Z,60.29
2023-01-08T08:01:19.591Z,62.77
2023-01-08T08:04:21.692Z,65.42
2023-01-08T08:07:23.762Z,63.59
2023-01-08T08:10:25.862Z,63.58
2023-01-08T08:13:28.155Z,66.38
2023-01-08T08:16:30.197Z,62.22
2023-01-08T08:19:32.301Z,60.55
2023-01-08T08:22:34.316Z,61.28
2023-01-08T08:25:37.080Z,63.19
2023-01-08T08:28:42.272Z,62.05
2023-01-08T08:31:44.574Z,63.02
2023-01-08T08:34:46.532Z,62.59
2023-01-08T08:37:48.831Z,61.74
2023-01-08T08:40:51.264Z,64.32
2023-01-08T08:43:53.674Z,65.70
2023-01-08T08:46:55.699Z,63.98
2023-01-08T08:49:57.913Z,63.52
2023-01-08T08:53:00.887Z,68.05
2023-01-08T08:56:03.126Z,68.88
2023-01-08T08:59:05.161Z,71.39
2023-01-08T09:02:07.677Z,70.40
2023-01-08T09:05:10.920Z,72.78
2023-01-08T09:08:13.269Z,72.76
2023-01-08T09:11:16.525Z,70.48
2023-01-08T09:14:18.804Z,67.36
2023-01-08T09:17:22.366Z,68.49
2023-01-08T09:20:29.820Z,68.58
2023-01-08T09:23:32.771Z,68.03
2023-01-08T09:26:34.901Z,65.81
2023-01-08T09:29:36.930Z,65.13
2023-01-08T09:32:39.132Z,66.20
2023-01-08T09:35:44.830Z,64.84
2023-01-08T09:38:46.818Z,64.79
2023-01-08T09:41:50.037Z,65.57
2023-01-08T09:44:55.633Z,64.84
2023-01-08T09:48:01.306Z,64.98
2023-01-08T09:51:06.542Z,64.76
2023-01-08T09:54:15.744Z,64.33
2023-01-08T09:57:20.503Z,64.11
2023-01-08T10:00:29.869Z,63.80
2023-01-08T10:03:43.694Z,63.39
2023-01-08T10:07:02.394Z,62.88
2023-01-08T10:10:07.047Z,64.07
2023-01-08T10:13:14.644Z,66.29
2023-01-08T10:16:33.560Z,64.04
2023-01-08T10:19:38.932Z,63.77
2023-01-08T10:22:41.408Z,64.50
2023-01-08T10:25:55.342Z,65.43
2023-01-08T10:29:17.499Z,64.73
2023-01-08T10:32:39.820Z,66.07
2023-01-08T10:35:43.462Z,65.09
2023-01-08T10:38:56.438Z,67.31
2023-01-08T10:42:05.884Z,67.26
2023-01-08T10:45:19.109Z,69.15
2023-01-08T10:48:21.424Z,68.02
2023-01-08T10:51:25.981Z,67.93
2023-01-08T10:54:41.112Z,68.24
2023-01-08T10:57:53.187Z,68.37
2023-01-08T11:00:57.736Z,69.11
2023-01-08T11:04:02.181Z,69.04
2023-01-08T11:07:06.856Z,68.49
2023-01-08T11:10:30.369Z,69.27
2023-01-08T11:13:32.663Z,70.42
2023-01-08T11:16:39.793Z,69.84
2023-01-08T11:19:41.956Z,70.31
2023-01-08T11:22:44.062Z,70.85
2023-01-08T11:26:31.985Z,70.99
2023-01-08T11:30:05.081Z,70.23
2023-01-08T11:33:34.204Z,71.41
2023-01-08T11:42:04.551Z,72.88
2023-01-08T11:45:38.844Z,71.64
2023-01-08T11:49:02.043Z,71.86
2023-01-08T11:52:56.490Z,72.08
2023-01-08T11:56:37.593Z,72.40
2023-01-08T11:59:55.576Z,73.50
2023-01-08T12:03:11.544Z,72.88
2023-01-08T12:06:45.259Z,74.11
2023-01-08T12:09:58.150Z,78.08
2023-01-08T12:13:22.996Z,76.17
2023-01-08T12:17:03.050Z,72.52
2023-01-08T12:20:36.405Z,71.48
2023-01-08T12:23:44.241Z,70.03
2023-01-08T12:27:07.644Z,70.12
2023-01-08T12:30:18.909Z,70.17
2023-01-08T12:33:35.013Z,67.92
2023-01-08T12:36:41.824Z,67.51
2023-01-08T12:39:53.463Z,67.96
2023-01-08T12:43:01.605Z,66.16
2023-01-08T12:46:06.232Z,66.03
2023-01-08T12:49:11.563Z,67.15
2023-01-08T12:52:24.169Z,66.15
2023-01-08T12:55:42.767Z,63.99
2023-01-08T12:58:45.230Z,66.05
2023-01-08T13:02:14.423Z,64.46
2023-01-08T13:05:19.384Z,63.99
2023-01-08T13:08:52.938Z,65.76
2023-01-08T13:12:03.223Z,64.78
2023-01-08T13:15:07.004Z,65.91
2023-01-08T13:18:21.219Z,66.92
2023-01-08T13:21:31.318Z,66.58
2023-01-08T13:24:41.258Z,68.27
2023-01-08T13:27:44.962Z,67.97
2023-01-08T13:30:50.362Z,67.74
2023-01-08T13:33:52.915Z,66.22
2023-01-08T13:36:57.509Z,64.91
2023-01-08T13:39:59.659Z,62.48
2023-01-08T13:43:06.454Z,65.28
2023-01-08T13:46:23.022Z,60.32
2023-01-08T13:49:57.192Z,57.00
2023-01-08T13:53:04.096Z,59.46
2023-01-08T13:56:09.177Z,57.61
2023-01-08T13:59:42.953Z,54.77
2023-01-08T14:02:50.596Z,62.22
2023-01-08T14:06:06.604Z,63.04
2023-01-08T14:09:35.272Z,62.58
2023-01-08T14:12:37.486Z,63.16
2023-01-08T14:15:39.856Z,63.04
2023-01-08T14:18:44.173Z,61.73
2023-01-08T14:21:57.390Z,64.83
2023-01-08T14:25:04.087Z,67.42
2023-01-08T14:28:12.184Z,71.92
2023-01-08T14:31:31.505Z,71.46
2023-01-08T14:34:39.883Z,70.32
2023-01-08T14:37:42.439Z,71.36
2023-01-08T14:41:04.983Z,70.65
2023-01-08T14:44:14.205Z,68.26
2023-01-08T14:47:22.140Z,69.03
2023-01-08T14:50:24.369Z,68.76
2023-01-08T14:53:34.089Z,67.98
2023-01-08T14:56:37.656Z,69.42
2023-01-08T14:59:40.015Z,68.88
2023-01-08T15:02:49.373Z,67.83
2023-01-08T15:05:54.615Z,70.72
2023-01-08T15:08:58.529Z,68.43
2023-01-08T15:12:04.087Z,66.83
2023-01-08T15:15:22.442Z,68.22
2023-01-08T15:18:25.516Z,63.81
2023-01-08T15:21:27.684Z,61.83
2023-01-08T15:24:37.130Z,62.85
2023-01-08T15:27:40.152Z,60.70
2023-01-08T15:30:47.565Z,59.07
2023-01-08T15:34:00.152Z,60.71
2023-01-08T15:37:02.743Z,57.65
2023-01-08T15:40:05.734Z,56.83
2023-01-08T15:43:12.759Z,57.49
2023-01-08T15:46:25.321Z,54.48
2023-01-08T15:49:41.067Z,54.67
2023-01-08T15:52:43.868Z,55.51
2023-01-08T15:55:48.339Z,53.58
2023-01-08T15:58:50.414Z,54.04
2023-01-08T16:01:53.274Z,53.37
2023-01-08T16:04:57.196Z,51.87
2023-01-08T16:07:59.844Z,52.76
2023-01-08T16:11:02.002Z,53.97
2023-01-08T16:14:04.987Z,50.70
2023-01-08T16:17:11.091Z,51.54
2023-01-08T16:20:15.775Z,51.72
2023-01-08T16:23:21.751Z,50.21
2023-01-08T16:26:25.093Z,51.95
2023-01-08T16:29:30.091Z,52.72
2023-01-08T16:32:32.785Z,52.68
2023-01-08T16:36:57.912Z,54.87
2023-01-08T16:40:02.429Z,54.80
2023-01-08T16:43:08.036Z,48.87
2023-01-08T16:46:16.670Z,47.46
2023-01-08T16:50:17.365Z,46.67
2023-01-08T16:53:21.249Z,47.62
2023-01-08T16:56:24.537Z,49.04
2023-01-08T16:59:27.682Z,47.95
2023-01-08T17:02:42.344Z,47.94
2023-01-08T17:05:47.295Z,48.60
2023-01-08T17:08:51.949Z,47.92
2023-01-08T17:11:57.320Z,48.48
2023-01-08T17:15:03.699Z,47.88
2023-01-08T17:18:06.360Z,46.90
2023-01-08T17:21:09.964Z,48.60
2023-01-08T17:24:12.202Z,48.65
2023-01-08T17:27:14.241Z,46.70
2023-01-08T17:30:16.532Z,48.99
2023-01-08T17:33:18.853Z,47.32
2023-01-08T17:36:37.668Z,46.47
2023-01-08T17:39:49.258Z,48.16
2023-01-08T17:42:51.335Z,47.99
2023-01-08T17:45:56.515Z,47.38
2023-01-08T17:49:00.541Z,48.40
2023-01-08T17:52:02.778Z,46.38
2023-01-08T17:55:05.299Z,45.49
2023-01-08T17:58:09.727Z,48.90
2023-01-08T18:01:14.630Z,46.91
2023-01-08T18:04:17.438Z,45.83
2023-01-08T18:07:19.570Z,48.61
2023-01-08T18:10:21.615Z,47.96
2023-01-08T18:13:23.978Z,47.90
2023-01-08T18:16:27.222Z,47.77
2023-01-08T18:19:29.236Z,51.19
2023-01-08T18:22:31.694Z,52.26
2023-01-08T18:25:45.046Z,54.24
2023-01-08T18:28:48.486Z,56.22
2023-01-08T18:31:51.490Z,58.01
2023-01-08T18:34:53.742Z,57.84
2023-01-08T18:37:57.169Z,59.25
2023-01-08T18:41:02.211Z,59.00
2023-01-08T18:44:06.845Z,60.01
2023-01-08T18:47:09.274Z,58.85
2023-01-08T18:50:12.022Z,58.23
2023-01-08T18:53:14.248Z,58.02
2023-01-08T18:56:35.563Z,58.30
2023-01-08T18:59:38.121Z,60.32
2023-01-08T19:02:40.425Z,60.84
2023-01-08T19:05:43.233Z,60.52
2023-01-08T19:08:46.423Z,60.46
2023-01-08T19:11:48.632Z,61.22
2023-01-08T19:14:51.114Z,61.37
2023-01-08T19:17:53.224Z,62.32
2023-01-08T19:20:56.438Z,62.00
2023-01-08T19:24:00.144Z,61.82
2023-01-08T19:27:02.225Z,61.64
2023-01-08T19:30:07.423Z,64.05
2023-01-08T19:33:10.850Z,63.22
2023-01-08T19:36:15.966Z,62.39
2023-01-08T19:39:22.809Z,61.40
2023-01-08T19:42:45.816Z,62.42
2023-01-08T19:45:47.890Z,61.00
2023-01-08T19:48:50.325Z,60.64
2023-01-08T19:51:53.086Z,61.66
2023-01-08T19:54:57.834Z,60.88
2023-01-08T19:58:00.124Z,61.65
2023-01-08T20:01:10.116Z,62.10
2023-01-08T20:04:16.973Z,62.20
2023-01-08T20:07:28.844Z,62.43
2023-01-08T20:10:31.736Z,61.94
2023-01-08T20:13:37.113Z,68.05
2023-01-08T20:16:40.320Z,67.50
2023-01-08T20:19:46.894Z,67.25
2023-01-08T20:22:50.986Z,65.74
2023-01-08T20:25:56.376Z,64.38
2023-01-08T20:28:59.823Z,65.53
2023-01-08T20:32:05.370Z,63.90
2023-01-08T20:35:08.508Z,64.66
2023-01-08T20:38:12.034Z,63.57
2023-01-08T20:41:14.751Z,63.79
2023-01-08T20:44:18.995Z,63.67
2023-01-08T20:47:23.260Z,61.63
2023-01-08T20:50:25.682Z,61.77
2023-01-08T20:53:33.052Z,52.60
2023-01-08T20:56:42.335Z,53.79
2023-01-08T20:59:52.703Z,55.41
2023-01-08T21:03:04.385Z,54.50
2023-01-08T21:06:15.846Z,55.97
2023-01-08T21:09:21.026Z,56.32
2023-01-08T21:12:23.430Z,57.52
2023-01-08T21:15:31.748Z,87.86
2023-01-08T21:18:34.604Z,88.73
2023-01-08T21:21:40.775Z,84.16
2023-01-08T21:24:44.360Z,81.22
2023-01-08T21:27:47.648Z,79.57
2023-01-08T21:30:54.788Z,78.23
2023-01-08T21:33:58.712Z,77.48
2023-01-08T21:37:02.635Z,77.61
2023-01-08T21:40:06.842Z,77.45
2023-01-08T21:43:30.873Z,76.66
2023-01-08T21:46:34.709Z,75.48
2023-01-08T21:49:38.830Z,75.18
2023-01-08T21:53:00.104Z,74.03
2023-01-08T21:56:04.218Z,72.57
2023-01-08T21:59:06.280Z,72.11
2023-01-08T22:02:19.601Z,71.77
2023-01-08T22:05:21.758Z,71.47
2023-01-08T22:08:24.101Z,70.63
2023-01-08T22:11:35.969Z,69.50
2023-01-08T22:14:57.687Z,68.77
2023-01-08T22:18:02.687Z,68.70
2023-01-08T22:21:13.505Z,69.33
2023-01-08T22:24:18.447Z,68.94
2023-01-08T22:27:29.285Z,68.79
2023-01-08T22:30:31.888Z,68.51
2023-01-08T22:33:34.526Z,67.32
2023-01-08T22:36:37.069Z,68.13
2023-01-08T22:39:40.172Z,67.22
2023-01-08T22:42:45.950Z,66.08
2023-01-08T22:46:00.598Z,66.31
2023-01-08T22:49:52.727Z,65.72
2023-01-08T22:52:54.857Z,66.84
2023-01-08T22:56:02.045Z,65.93
2023-01-08T23:02:44.866Z,65.87
2023-01-08T23:05:47.301Z,65.07
2023-01-08T23:09:08.325Z,65.22
2023-01-08T23:17:19.595Z,65.21
2023-01-08T23:21:12.123Z,65.45
2023-01-08T23:24:43.583Z,65.72
2023-01-08T23:27:48.275Z,65.59
2023-01-08T23:30:50.564Z,64.82
2023-01-08T23:33:54.776Z,65.32
2023-01-08T23:36:58.803Z,65.88
2023-01-08T23:40:01.141Z,66.03
2023-01-08T23:43:05.873Z,65.38
2023-01-08T23:46:09.498Z,64.95
2023-01-08T23:49:12.103Z,65.94
2023-01-08T23:52:15.444Z,66.09
2023-01-08T23:55:17.752Z,66.13
2023-01-08T23:58:21.422Z,66.40
